Time;durP1;ratioP1;P1;durP2;ratioP2;P2;SDS_P1;SDS_P2;PMS_P1;PMS_P2;Temp;Humidity;BMP_temperature;BMP_pressure;BME280_temperature;BME280_humidity;BME280_pressure;Samples;Min_cycle;Max_cycle;Signal;HPM_P1;HPM_P2
2023/05/22 00:00:53;;;;;;;17.30;15.60;;;;;;;;;;6065773;23;20662;-65
2023/05/22 00:03:23;;;;;;;16.07;14.50;;;;;;;;;;6064281;23;20639;-65
2023/05/22 00:05:57;;;;;;;15.60;14.10;;;;;;;;;;6065349;23;20973;-65
2023/05/22 00:08:25;;;;;;;15.60;14.10;;;;;;;;;;6066124;23;20667;-66
2023/05/22 00:10:54;;;;;;;16.10;14.50;;;;;;;;;;6064775;23;20702;-64
2023/05/22 00:13:22;;;;;;;15.40;13.80;;;;;;;;;;6066111;23;20986;-65
2023/05/22 00:15:50;;;;;;;16.90;15.13;;;;;;;;;;6039733;23;21001;-65
2023/05/22 00:18:19;;;;;;;14.90;13.40;;;;;;;;;;6066664;23;20666;-62
2023/05/22 00:20:47;;;;;;;15.43;13.67;;;;;;;;;;6065609;23;20663;-64
2023/05/22 00:23:17;;;;;;;15.83;14.33;;;;;;;;;;6066741;23;21011;-64
2023/05/22 00:25:45;;;;;;;16.47;14.97;;;;;;;;;;6065620;23;20683;-64
2023/05/22 00:28:13;;;;;;;16.53;14.90;;;;;;;;;;6066387;23;20671;-64
2023/05/22 00:30:41;;;;;;;14.57;13.27;;;;;;;;;;6065706;23;21392;-66
2023/05/22 00:33:10;;;;;;;16.60;14.90;;;;;;;;;;6066209;23;20671;-64
2023/05/22 00:35:39;;;;;;;17.03;15.43;;;;;;;;;;6065226;23;20750;-68
2023/05/22 00:38:08;;;;;;;15.97;14.33;;;;;;;;;;6066311;23;21202;-68
2023/05/22 00:40:38;;;;;;;17.53;13.90;;;;;;;;;;6065739;23;20596;-69
2023/05/22 00:43:08;;;;;;;14.87;13.37;;;;;;;;;;6065891;23;20659;-67
2023/05/22 00:45:36;;;;;;;16.60;15.10;;;;;;;;;;6065849;23;20659;-67
2023/05/22 00:48:06;;;;;;;17.00;15.40;;;;;;;;;;6041461;23;21020;-68
2023/05/22 00:50:35;;;;;;;16.53;14.90;;;;;;;;;;6066461;23;20635;-68
2023/05/22 00:53:03;;;;;;;19.20;16.47;;;;;;;;;;6066119;23;20650;-68
2023/05/22 00:55:31;;;;;;;16.37;14.80;;;;;;;;;;6066379;23;21070;-67
2023/05/22 00:58:01;;;;;;;18.20;16.40;;;;;;;;;;6065907;23;20633;-67
2023/05/22 01:00:33;;;;;;;17.27;15.47;;;;;;;;;;6064291;23;20963;-68
2023/05/22 01:03:01;;;;;;;17.77;16.00;;;;;;;;;;6039306;23;20769;-67
2023/05/22 01:05:30;;;;;;;21.60;16.07;;;;;;;;;;6040207;23;20667;-69
2023/05/22 01:07:58;;;;;;;16.17;14.57;;;;;;;;;;6065820;23;20669;-68
2023/05/22 01:10:27;;;;;;;17.60;16.03;;;;;;;;;;6040135;23;20707;-69
2023/05/22 01:12:59;;;;;;;16.97;15.17;;;;;;;;;;6040491;23;20573;-69
2023/05/22 01:15:32;;;;;;;16.37;14.80;;;;;;;;;;6065974;23;20683;-68
2023/05/22 01:18:09;;;;;;;16.70;15.17;;;;;;;;;;6066887;23;20952;-69
2023/05/22 01:20:39;;;;;;;16.77;15.07;;;;;;;;;;6041314;23;20631;-68
2023/05/22 01:23:22;;;;;;;18.83;17.07;;;;;;;;;;6065798;23;20985;-68
2023/05/22 01:26:11;;;;;;;17.53;15.83;;;;;;;;;;6068128;23;20910;-69
2023/05/22 01:28:51;;;;;;;19.90;16.33;;;;;;;;;;6060010;23;21014;-68
2023/05/22 01:31:25;;;;;;;16.57;14.97;;;;;;;;;;6042687;23;20632;-69
2023/05/22 01:33:55;;;;;;;18.10;16.20;;;;;;;;;;6068488;23;20639;-68
2023/05/22 01:36:25;;;;;;;17.03;15.33;;;;;;;;;;6067127;23;21209;-69
2023/05/22 01:38:55;;;;;;;18.40;16.60;;;;;;;;;;6067675;23;20631;-68
2023/05/22 01:41:23;;;;;;;19.40;16.27;;;;;;;;;;6067502;23;20994;-69
2023/05/22 01:43:52;;;;;;;19.20;17.20;;;;;;;;;;6068159;23;21200;-69
2023/05/22 01:46:22;;;;;;;17.20;15.50;;;;;;;;;;6067206;23;20666;-68
2023/05/22 01:48:50;;;;;;;16.97;15.47;;;;;;;;;;6042622;23;20655;-69
2023/05/22 01:51:20;;;;;;;17.60;15.80;;;;;;;;;;6067582;23;20645;-69
2023/05/22 01:53:53;;;;;;;19.00;16.60;;;;;;;;;;6067543;23;20947;-69
2023/05/22 01:56:29;;;;;;;18.73;16.93;;;;;;;;;;6067567;23;20675;-69
2023/05/22 01:59:02;;;;;;;21.60;18.17;;;;;;;;;;6042181;23;20658;-69
2023/05/22 02:01:33;;;;;;;20.27;18.17;;;;;;;;;;6041556;23;20935;-69
2023/05/22 02:04:01;;;;;;;17.80;16.20;;;;;;;;;;6065887;23;21165;-68
2023/05/22 02:06:31;;;;;;;20.07;17.63;;;;;;;;;;6067126;23;20716;-69
2023/05/22 02:09:00;;;;;;;18.20;16.37;;;;;;;;;;6041626;23;20631;-68
2023/05/22 02:11:29;;;;;;;18.90;17.10;;;;;;;;;;6067813;23;20699;-69
2023/05/22 02:13:58;;;;;;;18.67;16.87;;;;;;;;;;6066575;23;20647;-68
2023/05/22 02:16:27;;;;;;;18.20;16.20;;;;;;;;;;6067075;23;20707;-68
2023/05/22 02:19:04;;;;;;;19.73;17.57;;;;;;;;;;6066637;23;20658;-69
2023/05/22 02:21:33;;;;;;;21.20;18.97;;;;;;;;;;6067819;23;20631;-68
2023/05/22 02:24:03;;;;;;;20.63;18.13;;;;;;;;;;6066553;23;20679;-69
2023/05/22 02:26:31;;;;;;;18.90;17.00;;;;;;;;;;6067888;23;20727;-64
2023/05/22 02:29:01;;;;;;;21.93;19.67;;;;;;;;;;6041520;23;20704;-64
2023/05/22 02:31:29;;;;;;;18.90;16.63;;;;;;;;;;6042600;23;20630;-64
2023/05/22 02:33:58;;;;;;;19.57;17.23;;;;;;;;;;6041158;23;20943;-65
2023/05/22 02:36:29;;;;;;;20.03;17.43;;;;;;;;;;6040429;23;20711;-64
2023/05/22 02:38:58;;;;;;;19.77;17.73;;;;;;;;;;6041697;23;20598;-65
2023/05/22 02:41:26;;;;;;;19.47;17.57;;;;;;;;;;6066486;23;20667;-65
2023/05/22 02:43:54;;;;;;;19.03;16.20;;;;;;;;;;6067103;23;20979;-65
2023/05/22 02:46:23;;;;;;;19.77;17.67;;;;;;;;;;6041360;23;20926;-65
2023/05/22 02:48:51;;;;;;;17.70;15.93;;;;;;;;;;6042069;23;20667;-64
2023/05/22 02:51:20;;;;;;;19.93;16.40;;;;;;;;;;6041365;23;20649;-64
2023/05/22 02:53:50;;;;;;;18.10;16.23;;;;;;;;;;6041754;23;20637;-66
2023/05/22 02:56:19;;;;;;;17.43;15.80;;;;;;;;;;6066111;23;20702;-65
2023/05/22 02:58:47;;;;;;;19.30;17.40;;;;;;;;;;6066576;23;21053;-64
2023/05/22 03:01:16;;;;;;;18.10;15.67;;;;;;;;;;6040076;23;21200;-64
2023/05/22 03:03:44;;;;;;;19.93;17.93;;;;;;;;;;6065480;23;20983;-65
2023/05/22 03:06:12;;;;;;;19.00;17.03;;;;;;;;;;6066498;23;20836;-64
2023/05/22 03:08:42;;;;;;;19.23;17.33;;;;;;;;;;6066927;23;20721;-65
2023/05/22 03:11:12;;;;;;;19.60;17.60;;;;;;;;;;6039915;23;20678;-64
2023/05/22 03:13:40;;;;;;;22.77;18.87;;;;;;;;;;6066390;23;20666;-65
2023/05/22 03:16:08;;;;;;;21.07;18.30;;;;;;;;;;6066097;23;20659;-65
2023/05/22 03:18:39;;;;;;;21.60;19.40;;;;;;;;;;6041050;23;20620;-65
2023/05/22 03:21:07;;;;;;;20.07;17.97;;;;;;;;;;6040389;23;20665;-64
2023/05/22 03:23:36;;;;;;;22.20;20.00;;;;;;;;;;6041412;23;20663;-67
2023/05/22 03:26:04;;;;;;;20.80;18.60;;;;;;;;;;6066011;23;20973;-64
2023/05/22 03:28:37;;;;;;;21.07;18.90;;;;;;;;;;6040760;23;20933;-68
2023/05/22 03:31:08;;;;;;;20.87;18.60;;;;;;;;;;6040973;23;20667;-69
2023/05/22 03:33:46;;;;;;;21.87;19.57;;;;;;;;;;6040999;23;21163;-66
2023/05/22 03:36:14;;;;;;;20.70;18.60;;;;;;;;;;6041219;23;20634;-64
2023/05/22 03:38:43;;;;;;;24.43;20.90;;;;;;;;;;6041230;23;20637;-64
2023/05/22 03:41:11;;;;;;;22.60;19.57;;;;;;;;;;6042030;23;20667;-64
2023/05/22 03:43:40;;;;;;;22.30;19.57;;;;;;;;;;6066716;23;20641;-64
2023/05/22 03:46:09;;;;;;;20.67;18.57;;;;;;;;;;6067263;23;20642;-64
2023/05/22 03:48:38;;;;;;;21.40;19.17;;;;;;;;;;6065116;23;20731;-64
2023/05/22 03:51:07;;;;;;;22.97;19.30;;;;;;;;;;6041169;23;20638;-65
2023/05/22 03:53:35;;;;;;;23.23;19.53;;;;;;;;;;6066389;23;20663;-65
2023/05/22 03:56:03;;;;;;;28.37;20.57;;;;;;;;;;6067231;23;20646;-64
2023/05/22 03:58:31;;;;;;;18.53;16.63;;;;;;;;;;6066241;23;20673;-64
2023/05/22 04:01:02;;;;;;;22.10;19.30;;;;;;;;;;6065900;23;20698;-63
2023/05/22 04:03:30;;;;;;;22.63;20.30;;;;;;;;;;6065261;23;20651;-66
2023/05/22 04:05:59;;;;;;;20.57;18.37;;;;;;;;;;6065898;23;20659;-65
2023/05/22 04:08:27;;;;;;;21.60;19.13;;;;;;;;;;6066527;23;20640;-64
2023/05/22 04:10:55;;;;;;;23.20;20.13;;;;;;;;;;6065561;23;20679;-64
2023/05/22 04:13:24;;;;;;;21.77;19.37;;;;;;;;;;6065819;23;20666;-65
2023/05/22 04:15:52;;;;;;;23.43;20.20;;;;;;;;;;6066573;23;20663;-64
2023/05/22 04:18:22;;;;;;;21.83;18.83;;;;;;;;;;6040264;23;20669;-64
2023/05/22 04:20:50;;;;;;;20.50;18.30;;;;;;;;;;6040909;23;20610;-64
2023/05/22 04:23:20;;;;;;;21.23;19.13;;;;;;;;;;6040892;23;20675;-64
2023/05/22 04:25:48;;;;;;;20.70;18.60;;;;;;;;;;6066244;23;20626;-64
2023/05/22 04:28:17;;;;;;;22.17;19.97;;;;;;;;;;6066468;23;20668;-65
2023/05/22 04:30:45;;;;;;;20.67;18.57;;;;;;;;;;6065856;23;21218;-65
2023/05/22 04:33:13;;;;;;;21.40;18.87;;;;;;;;;;6066135;23;20659;-65
2023/05/22 04:35:43;;;;;;;22.20;19.90;;;;;;;;;;6065917;23;20655;-64
2023/05/22 04:38:11;;;;;;;22.10;17.70;;;;;;;;;;6066108;23;20990;-65
2023/05/22 04:40:40;;;;;;;20.80;17.43;;;;;;;;;;6065938;23;20663;-64
2023/05/22 04:43:10;;;;;;;22.27;18.20;;;;;;;;;;6040506;23;21253;-65
2023/05/22 04:45:41;;;;;;;21.43;18.60;;;;;;;;;;6065414;23;20659;-64
2023/05/22 04:48:10;;;;;;;23.00;19.73;;;;;;;;;;6065618;23;20628;-65
2023/05/22 04:50:39;;;;;;;26.20;19.77;;;;;;;;;;6065406;23;20651;-64
2023/05/22 04:53:11;;;;;;;23.53;19.93;;;;;;;;;;6041075;23;20576;-64
2023/05/22 04:55:39;;;;;;;21.47;19.27;;;;;;;;;;6065177;23;20717;-63
2023/05/22 04:58:08;;;;;;;20.73;17.70;;;;;;;;;;6041030;23;20720;-63
2023/05/22 05:00:36;;;;;;;22.40;20.00;;;;;;;;;;6066625;23;20719;-63
2023/05/22 05:03:06;;;;;;;30.40;20.30;;;;;;;;;;6065693;23;20670;-64
2023/05/22 05:05:34;;;;;;;21.77;19.57;;;;;;;;;;6067433;23;20705;-64
2023/05/22 05:08:03;;;;;;;21.40;19.10;;;;;;;;;;6043098;23;20690;-63
2023/05/22 05:10:33;;;;;;;22.27;19.97;;;;;;;;;;6041713;23;20694;-63
2023/05/22 05:13:01;;;;;;;22.03;19.83;;;;;;;;;;6042319;23;20667;-63
2023/05/22 05:15:30;;;;;;;24.30;21.60;;;;;;;;;;6041198;23;20946;-64
2023/05/22 05:17:58;;;;;;;23.67;19.93;;;;;;;;;;6065898;23;21349;-63
2023/05/22 05:20:27;;;;;;;23.37;20.97;;;;;;;;;;6042169;23;20749;-64
2023/05/22 05:22:56;;;;;;;23.53;20.73;;;;;;;;;;6042420;23;21069;-64
2023/05/22 05:25:24;;;;;;;24.27;19.80;;;;;;;;;;6067618;23;20981;-64
2023/05/22 05:27:55;;;;;;;24.00;20.23;;;;;;;;;;6018743;23;20656;-65
2023/05/22 05:30:24;;;;;;;26.33;19.80;;;;;;;;;;6042615;23;20620;-64
2023/05/22 05:33:25;;;;;;;22.87;20.20;;;;;;;;;;6005021;23;20648;-64
2023/05/22 05:36:03;;;;;;;23.07;20.70;;;;;;;;;;6067293;23;20620;-64
2023/05/22 05:38:32;;;;;;;21.30;19.17;;;;;;;;;;6041773;23;21069;-64
2023/05/22 05:41:01;;;;;;;26.07;20.57;;;;;;;;;;6041040;23;20698;-66
2023/05/22 05:43:31;;;;;;;23.17;20.87;;;;;;;;;;6042476;23;20641;-64
2023/05/22 05:46:04;;;;;;;24.87;20.53;;;;;;;;;;6041544;23;20661;-64
2023/05/22 05:48:33;;;;;;;26.73;20.70;;;;;;;;;;6065556;23;21183;-64
2023/05/22 05:51:01;;;;;;;20.23;18.13;;;;;;;;;;6020363;23;20667;-69
2023/05/22 05:53:35;;;;;;;21.60;17.37;;;;;;;;;;6066337;23;20600;-66
2023/05/22 05:56:05;;;;;;;20.60;18.30;;;;;;;;;;6067613;23;20560;-65
2023/05/22 05:58:36;;;;;;;18.77;16.87;;;;;;;;;;6045315;23;20583;-66
2023/05/22 06:01:23;;;;;;;20.30;18.23;;;;;;;;;;6069019;23;20584;-67
2023/05/22 06:03:52;;;;;;;20.13;18.13;;;;;;;;;;6069646;23;20565;-66
2023/05/22 06:06:29;;;;;;;22.00;18.73;;;;;;;;;;6070828;23;20591;-68
2023/05/22 06:09:18;;;;;;;19.43;17.20;;;;;;;;;;6075657;23;20608;-66
2023/05/22 06:12:11;;;;;;;18.33;16.23;;;;;;;;;;6070697;23;20545;-69
2023/05/22 06:14:41;;;;;;;20.77;18.63;;;;;;;;;;6070115;23;20531;-66
2023/05/22 06:17:09;;;;;;;17.20;15.40;;;;;;;;;;6095261;23;20572;-67
2023/05/22 06:19:41;;;;;;;18.73;16.90;;;;;;;;;;6070353;23;20596;-69
2023/05/22 06:22:09;;;;;;;17.83;16.13;;;;;;;;;;6067548;23;20576;-65
2023/05/22 06:24:40;;;;;;;17.23;15.60;;;;;;;;;;6066547;23;20525;-65
2023/05/22 06:27:15;;;;;;;18.03;15.83;;;;;;;;;;6044110;23;20560;-65
2023/05/22 06:29:45;;;;;;;20.03;17.30;;;;;;;;;;6068934;23;20564;-64
2023/05/22 06:32:13;;;;;;;17.37;15.80;;;;;;;;;;6069180;23;20565;-67
2023/05/22 06:34:45;;;;;;;17.43;15.83;;;;;;;;;;6067911;23;20491;-66
2023/05/22 06:37:14;;;;;;;17.90;16.10;;;;;;;;;;6065482;23;20548;-64
2023/05/22 06:39:45;;;;;;;19.03;17.03;;;;;;;;;;6062847;23;20596;-63
2023/05/22 06:42:34;;;;;;;17.63;16.00;;;;;;;;;;6088823;23;20559;-65
2023/05/22 06:45:22;;;;;;;17.93;16.30;;;;;;;;;;6090280;23;20560;-65
2023/05/22 06:48:10;;;;;;;18.60;16.90;;;;;;;;;;6064491;23;20572;-65
2023/05/22 06:50:48;;;;;;;17.77;15.87;;;;;;;;;;6041608;23;20616;-67
2023/05/22 06:53:16;;;;;;;17.93;16.13;;;;;;;;;;6067657;23;20588;-69
2023/05/22 06:55:44;;;;;;;16.77;15.23;;;;;;;;;;6068689;23;20551;-69
2023/05/22 06:58:21;;;;;;;17.10;15.47;;;;;;;;;;6068563;23;20579;-69
2023/05/22 07:00:52;;;;;;;19.13;17.40;;;;;;;;;;6067879;23;20580;-68
2023/05/22 07:03:26;;;;;;;19.23;17.53;;;;;;;;;;6067666;23;20532;-69
2023/05/22 07:06:20;;;;;;;18.00;16.30;;;;;;;;;;6087732;23;20623;-70
2023/05/22 07:08:49;;;;;;;18.57;16.80;;;;;;;;;;6093900;23;20517;-69
2023/05/22 07:11:17;;;;;;;17.47;15.83;;;;;;;;;;6069096;23;20589;-68
2023/05/22 07:13:45;;;;;;;19.00;17.10;;;;;;;;;;6069800;23;20545;-68
2023/05/22 07:16:16;;;;;;;18.07;16.37;;;;;;;;;;6093798;23;20650;-68
2023/05/22 07:18:45;;;;;;;19.40;17.40;;;;;;;;;;6069197;23;21256;-65
2023/05/22 07:21:13;;;;;;;19.63;17.70;;;;;;;;;;6068452;23;21264;-65
2023/05/22 07:23:42;;;;;;;19.87;17.90;;;;;;;;;;6043368;23;20643;-65
2023/05/22 07:26:11;;;;;;;19.30;16.63;;;;;;;;;;6043872;23;20667;-65
2023/05/22 07:28:47;;;;;;;19.97;18.03;;;;;;;;;;6043746;23;20597;-65
2023/05/22 07:31:17;;;;;;;18.03;16.43;;;;;;;;;;6044881;23;20622;-64
2023/05/22 07:33:47;;;;;;;18.63;16.77;;;;;;;;;;6043365;23;20636;-65
2023/05/22 07:36:17;;;;;;;20.03;18.10;;;;;;;;;;6044231;23;20671;-65
2023/05/22 07:38:46;;;;;;;21.93;18.47;;;;;;;;;;6069397;23;21276;-65
2023/05/22 07:41:14;;;;;;;18.80;17.10;;;;;;;;;;6044500;23;20715;-65
2023/05/22 07:43:42;;;;;;;18.97;17.20;;;;;;;;;;6043176;23;20685;-63
2023/05/22 07:46:13;;;;;;;19.80;17.90;;;;;;;;;;6023661;23;20681;-66
2023/05/22 07:48:53;;;;;;;19.73;16.20;;;;;;;;;;6049436;23;20964;-64
2023/05/22 07:51:21;;;;;;;20.30;18.27;;;;;;;;;;6046785;23;20584;-65
2023/05/22 07:53:52;;;;;;;18.83;17.13;;;;;;;;;;6045257;23;20645;-63
2023/05/22 07:56:20;;;;;;;18.37;16.57;;;;;;;;;;6072037;23;20666;-65
2023/05/22 07:58:51;;;;;;;23.57;16.80;;;;;;;;;;6043855;23;20698;-64
2023/05/22 08:01:22;;;;;;;17.00;15.37;;;;;;;;;;6019454;23;21152;-66
2023/05/22 08:03:50;;;;;;;16.70;15.17;;;;;;;;;;6067574;23;20675;-65
2023/05/22 08:06:21;;;;;;;18.93;16.93;;;;;;;;;;6069327;23;20620;-63
2023/05/22 08:08:51;;;;;;;19.00;17.03;;;;;;;;;;6069597;23;20619;-64
2023/05/22 08:11:20;;;;;;;21.57;17.20;;;;;;;;;;6069980;23;21188;-66
2023/05/22 08:13:48;;;;;;;17.13;15.50;;;;;;;;;;6070405;23;20656;-66
2023/05/22 08:16:17;;;;;;;20.00;17.73;;;;;;;;;;6047128;23;20681;-66
2023/05/22 08:18:45;;;;;;;17.30;15.50;;;;;;;;;;6073434;23;21218;-66
2023/05/22 08:21:14;;;;;;;18.00;16.40;;;;;;;;;;6046029;23;20608;-66
2023/05/22 08:23:43;;;;;;;18.20;16.23;;;;;;;;;;6071747;23;20623;-65
2023/05/22 08:26:12;;;;;;;17.43;15.63;;;;;;;;;;6070949;23;20716;-66
2023/05/22 08:28:43;;;;;;;20.30;17.87;;;;;;;;;;6070018;23;20671;-65
2023/05/22 08:31:11;;;;;;;17.17;15.63;;;;;;;;;;6069132;23;20639;-66
2023/05/22 08:33:40;;;;;;;18.87;17.20;;;;;;;;;;6043810;23;20695;-65
2023/05/22 08:36:08;;;;;;;16.73;15.23;;;;;;;;;;6070408;23;20544;-65
2023/05/22 08:38:37;;;;;;;17.20;15.60;;;;;;;;;;6044817;23;20684;-65
2023/05/22 08:41:07;;;;;;;17.17;15.53;;;;;;;;;;6070532;23;20666;-66
2023/05/22 08:43:36;;;;;;;19.40;17.57;;;;;;;;;;6068033;23;20636;-68
2023/05/22 08:46:07;;;;;;;17.87;16.17;;;;;;;;;;6067990;23;20668;-64
2023/05/22 08:48:35;;;;;;;18.20;16.50;;;;;;;;;;6068595;23;20647;-66
2023/05/22 08:51:05;;;;;;;17.67;15.90;;;;;;;;;;6069057;23;21202;-65
2023/05/22 08:53:35;;;;;;;17.30;15.80;;;;;;;;;;6067412;23;21220;-64
2023/05/22 08:56:04;;;;;;;19.27;15.60;;;;;;;;;;6069316;23;20611;-64
2023/05/22 08:58:35;;;;;;;17.77;15.90;;;;;;;;;;6070956;23;20626;-66
2023/05/22 09:01:03;;;;;;;22.40;16.47;;;;;;;;;;6068978;23;20675;-65
2023/05/22 09:03:33;;;;;;;17.30;15.77;;;;;;;;;;6069691;23;20724;-65
2023/05/22 09:06:01;;;;;;;16.50;15.00;;;;;;;;;;6066378;23;20687;-65
2023/05/22 09:08:29;;;;;;;17.50;15.80;;;;;;;;;;6067827;23;20620;-64
2023/05/22 09:10:58;;;;;;;17.53;15.73;;;;;;;;;;6066208;23;20695;-65
2023/05/22 09:13:27;;;;;;;18.60;16.70;;;;;;;;;;6066940;23;20710;-65
2023/05/22 09:16:00;;;;;;;18.00;16.40;;;;;;;;;;6066237;23;20707;-64
2023/05/22 09:18:29;;;;;;;18.40;16.27;;;;;;;;;;6066865;23;20635;-64
2023/05/22 09:20:58;;;;;;;16.90;15.20;;;;;;;;;;6065577;23;20705;-65
2023/05/22 09:23:28;;;;;;;17.93;16.33;;;;;;;;;;6067908;23;20965;-64
2023/05/22 09:25:57;;;;;;;17.53;15.90;;;;;;;;;;6067049;23;20738;-66
2023/05/22 09:28:26;;;;;;;17.97;16.10;;;;;;;;;;6068310;23;21342;-66
2023/05/22 09:30:55;;;;;;;17.40;15.50;;;;;;;;;;6039830;23;20655;-64
2023/05/22 09:33:25;;;;;;;17.10;15.50;;;;;;;;;;6041358;23;20708;-65
2023/05/22 09:35:53;;;;;;;16.00;14.70;;;;;;;;;;6064917;23;20663;-64
2023/05/22 09:38:22;;;;;;;18.67;17.07;;;;;;;;;;6066062;23;20687;-64
2023/05/22 09:40:53;;;;;;;18.23;16.30;;;;;;;;;;6065293;23;21002;-64
2023/05/22 09:43:22;;;;;;;19.33;17.63;;;;;;;;;;6066507;23;20635;-65
2023/05/22 09:45:56;;;;;;;16.63;15.13;;;;;;;;;;6067752;23;20655;-65
2023/05/22 09:48:26;;;;;;;17.17;15.63;;;;;;;;;;6072530;23;20611;-65
2023/05/22 09:50:55;;;;;;;17.60;16.10;;;;;;;;;;6071542;23;20700;-64
2023/05/22 09:53:27;;;;;;;18.63;16.93;;;;;;;;;;6069890;23;20667;-65
2023/05/22 09:55:56;;;;;;;19.50;17.73;;;;;;;;;;6069843;23;20623;-65
2023/05/22 09:58:26;;;;;;;18.23;16.73;;;;;;;;;;6071104;23;20679;-65
2023/05/22 10:00:56;;;;;;;18.73;17.00;;;;;;;;;;6070812;23;20711;-65
2023/05/22 10:03:27;;;;;;;19.43;17.67;;;;;;;;;;6070009;23;20600;-64
2023/05/22 10:05:56;;;;;;;17.30;15.90;;;;;;;;;;6065063;23;20651;-66
2023/05/22 10:08:26;;;;;;;17.77;16.20;;;;;;;;;;6068206;23;20608;-65
2023/05/22 10:10:54;;;;;;;17.17;15.70;;;;;;;;;;6068104;23;21308;-65
2023/05/22 10:13:23;;;;;;;18.27;16.80;;;;;;;;;;6069161;23;20724;-66
2023/05/22 10:15:51;;;;;;;18.13;16.53;;;;;;;;;;6042672;23;21030;-66
2023/05/22 10:18:19;;;;;;;18.70;17.20;;;;;;;;;;6068136;23;20688;-68
2023/05/22 10:20:49;;;;;;;16.97;15.33;;;;;;;;;;6066696;23;20714;-65
2023/05/22 10:23:21;;;;;;;16.40;14.83;;;;;;;;;;6067581;23;20631;-65
2023/05/22 10:25:49;;;;;;;16.63;15.33;;;;;;;;;;6067266;23;21223;-65
2023/05/22 10:28:22;;;;;;;19.10;17.57;;;;;;;;;;6068033;23;20667;-64
2023/05/22 10:30:53;;;;;;;19.10;17.43;;;;;;;;;;6067670;23;20612;-64
2023/05/22 10:33:49;;;;;;;17.27;16.07;;;;;;;;;;6043347;23;20674;-66
2023/05/22 10:36:33;;;;;;;17.30;15.73;;;;;;;;;;6068487;23;20631;-64
2023/05/22 10:39:13;;;;;;;16.10;15.00;;;;;;;;;;6042870;23;20691;-66
2023/05/22 10:41:41;;;;;;;17.80;16.40;;;;;;;;;;6066645;23;20674;-65
2023/05/22 10:44:09;;;;;;;17.20;15.60;;;;;;;;;;6041924;23;20663;-63
2023/05/22 10:46:37;;;;;;;17.30;16.00;;;;;;;;;;6069490;23;20676;-64
2023/05/22 10:49:06;;;;;;;19.10;17.53;;;;;;;;;;6067320;23;20643;-68
2023/05/22 10:51:34;;;;;;;17.43;16.20;;;;;;;;;;6067777;23;20686;-64
2023/05/22 10:54:04;;;;;;;17.83;16.53;;;;;;;;;;6065634;23;20662;-64
2023/05/22 10:56:37;;;;;;;16.50;15.40;;;;;;;;;;6066559;23;20676;-63
2023/05/22 10:59:06;;;;;;;17.93;16.57;;;;;;;;;;6065927;23;20612;-65
2023/05/22 11:01:36;;;;;;;16.93;15.40;;;;;;;;;;6088766;23;20616;-67
2023/05/22 11:04:14;;;;;;;17.30;15.93;;;;;;;;;;6068324;23;20625;-68
2023/05/22 11:06:45;;;;;;;18.23;16.83;;;;;;;;;;6068838;23;20595;-67
2023/05/22 11:09:20;;;;;;;18.30;17.00;;;;;;;;;;6093195;23;20576;-69
2023/05/22 11:12:10;;;;;;;16.97;15.57;;;;;;;;;;6093881;23;20524;-66
2023/05/22 11:14:38;;;;;;;16.60;15.30;;;;;;;;;;6094648;23;20524;-68
2023/05/22 11:17:06;;;;;;;17.83;16.30;;;;;;;;;;6094621;23;20642;-67
2023/05/22 11:19:34;;;;;;;17.43;16.23;;;;;;;;;;6069859;23;20688;-66
2023/05/22 11:22:04;;;;;;;16.77;15.47;;;;;;;;;;6067222;23;20694;-66
2023/05/22 11:24:33;;;;;;;17.50;15.90;;;;;;;;;;6067453;23;20667;-66
2023/05/22 11:27:03;;;;;;;17.10;15.70;;;;;;;;;;6068339;23;20659;-66
2023/05/22 11:29:31;;;;;;;17.60;16.30;;;;;;;;;;6066721;23;20627;-65
2023/05/22 11:32:02;;;;;;;17.43;16.20;;;;;;;;;;6067898;23;20609;-65
2023/05/22 11:34:30;;;;;;;17.67;16.37;;;;;;;;;;6066321;23;20647;-66
2023/05/22 11:36:59;;;;;;;18.30;16.90;;;;;;;;;;6067402;23;20659;-65
2023/05/22 11:39:27;;;;;;;19.13;17.53;;;;;;;;;;6066533;23;20679;-65
2023/05/22 11:41:55;;;;;;;17.80;16.40;;;;;;;;;;6066979;23;21322;-65
2023/05/22 11:44:27;;;;;;;17.90;16.60;;;;;;;;;;6067145;23;20967;-65
2023/05/22 11:46:55;;;;;;;19.43;17.90;;;;;;;;;;6066723;23;20652;-66
2023/05/22 11:49:24;;;;;;;17.20;16.00;;;;;;;;;;6066673;23;20659;-66
2023/05/22 11:51:52;;;;;;;19.20;17.57;;;;;;;;;;6041334;23;20667;-66
2023/05/22 11:54:21;;;;;;;18.17;16.90;;;;;;;;;;6066498;23;20677;-66
2023/05/22 11:56:49;;;;;;;20.37;18.57;;;;;;;;;;6067164;23;20663;-66
2023/05/22 11:59:17;;;;;;;18.50;17.30;;;;;;;;;;6065844;23;20660;-67
2023/05/22 12:01:49;;;;;;;18.30;16.90;;;;;;;;;;6066130;23;20703;-68
2023/05/22 12:04:17;;;;;;;18.23;16.70;;;;;;;;;;6067252;23;20628;-66
2023/05/22 12:06:46;;;;;;;19.53;17.73;;;;;;;;;;6041800;23;20775;-66
2023/05/22 12:09:14;;;;;;;18.50;17.30;;;;;;;;;;6067919;23;20718;-64
2023/05/22 12:11:45;;;;;;;17.53;16.13;;;;;;;;;;6067600;23;20652;-66
2023/05/22 12:14:14;;;;;;;18.03;16.37;;;;;;;;;;6068466;23;20692;-65
2023/05/22 12:16:43;;;;;;;18.03;15.43;;;;;;;;;;6068626;23;20732;-66
2023/05/22 12:19:12;;;;;;;16.83;15.43;;;;;;;;;;6042671;23;21203;-65
2023/05/22 12:21:41;;;;;;;17.10;16.00;;;;;;;;;;6066714;23;20703;-65
2023/05/22 12:24:09;;;;;;;16.97;15.70;;;;;;;;;;6066575;23;20667;-65
2023/05/22 12:26:38;;;;;;;16.87;15.77;;;;;;;;;;6066515;23;21030;-68
2023/05/22 12:29:06;;;;;;;15.20;14.30;;;;;;;;;;6066215;23;20735;-67
2023/05/22 12:31:37;;;;;;;17.37;16.37;;;;;;;;;;6067378;23;20674;-67
2023/05/22 12:34:07;;;;;;;16.17;14.90;;;;;;;;;;6066786;23;20620;-66
2023/05/22 12:36:38;;;;;;;16.07;15.07;;;;;;;;;;6067235;23;20660;-65
2023/05/22 12:39:09;;;;;;;16.53;15.40;;;;;;;;;;6065775;23;20627;-65
2023/05/22 12:41:37;;;;;;;15.63;14.67;;;;;;;;;;6066353;23;20735;-65
2023/05/22 12:44:05;;;;;;;16.20;15.07;;;;;;;;;;6041649;23;20650;-66
2023/05/22 12:46:34;;;;;;;15.93;14.60;;;;;;;;;;6066712;23;20686;-67
2023/05/22 12:49:03;;;;;;;16.33;15.07;;;;;;;;;;6067535;23;20663;-67
2023/05/22 12:51:32;;;;;;;17.10;16.00;;;;;;;;;;6067841;23;20671;-67
2023/05/22 12:54:01;;;;;;;16.07;15.00;;;;;;;;;;6067404;23;21433;-66
2023/05/22 12:56:30;;;;;;;17.57;16.27;;;;;;;;;;6040981;23;20998;-65
2023/05/22 12:58:58;;;;;;;18.97;17.43;;;;;;;;;;6040306;23;20659;-66
2023/05/22 13:01:27;;;;;;;16.90;15.80;;;;;;;;;;6065166;23;20707;-66
2023/05/22 13:03:55;;;;;;;16.83;15.17;;;;;;;;;;6039550;23;21051;-65
2023/05/22 13:06:25;;;;;;;17.27;16.03;;;;;;;;;;6041084;23;20616;-67
2023/05/22 13:08:53;;;;;;;16.10;15.00;;;;;;;;;;6066983;23;20654;-65
2023/05/22 13:11:25;;;;;;;18.20;16.50;;;;;;;;;;6067267;23;20696;-65
2023/05/22 13:13:53;;;;;;;17.17;16.00;;;;;;;;;;6067395;23;20635;-66
2023/05/22 13:16:21;;;;;;;16.87;15.10;;;;;;;;;;6065899;23;21020;-67
2023/05/22 13:18:50;;;;;;;15.63;14.50;;;;;;;;;;6039620;23;20679;-66
2023/05/22 13:21:18;;;;;;;16.47;15.37;;;;;;;;;;6067437;23;20706;-66
2023/05/22 13:23:46;;;;;;;17.00;15.67;;;;;;;;;;6043934;23;20684;-66
2023/05/22 13:26:14;;;;;;;16.20;14.73;;;;;;;;;;6068298;23;20719;-65
2023/05/22 13:28:44;;;;;;;15.10;14.10;;;;;;;;;;6043995;23;20658;-65
2023/05/22 13:31:13;;;;;;;15.80;14.90;;;;;;;;;;6068762;23;20647;-66
2023/05/22 13:33:43;;;;;;;14.60;13.80;;;;;;;;;;6068118;23;21193;-65
2023/05/22 13:36:11;;;;;;;15.60;14.40;;;;;;;;;;6067808;23;20679;-65
2023/05/22 13:38:40;;;;;;;15.17;14.17;;;;;;;;;;6067125;23;20692;-64
2023/05/22 13:41:08;;;;;;;14.63;13.80;;;;;;;;;;6065907;23;20663;-66
2023/05/22 13:43:36;;;;;;;13.43;12.63;;;;;;;;;;6067183;23;20651;-66
2023/05/22 13:46:06;;;;;;;13.90;13.00;;;;;;;;;;6066843;23;20682;-66
2023/05/22 13:48:35;;;;;;;13.67;12.87;;;;;;;;;;6068634;23;20954;-65
2023/05/22 13:51:03;;;;;;;13.90;12.73;;;;;;;;;;6043657;23;20678;-65
2023/05/22 13:53:32;;;;;;;15.20;14.30;;;;;;;;;;6066535;23;20667;-64
2023/05/22 13:56:00;;;;;;;14.37;13.47;;;;;;;;;;6067996;23;20662;-65
2023/05/22 13:58:28;;;;;;;14.90;13.97;;;;;;;;;;6068285;23;20675;-64
2023/05/22 14:00:57;;;;;;;15.20;14.10;;;;;;;;;;6067697;23;20659;-65
2023/05/22 14:03:26;;;;;;;15.93;14.73;;;;;;;;;;6042321;23;20703;-65
2023/05/22 14:05:57;;;;;;;14.93;14.03;;;;;;;;;;6068889;23;20624;-65
2023/05/22 14:08:25;;;;;;;15.47;14.27;;;;;;;;;;6068164;23;20639;-65
2023/05/22 14:10:53;;;;;;;15.80;14.43;;;;;;;;;;6041548;23;20695;-64
2023/05/22 14:13:22;;;;;;;15.40;14.50;;;;;;;;;;6067817;23;20672;-65
2023/05/22 14:15:50;;;;;;;16.13;15.13;;;;;;;;;;6069200;23;20660;-64
2023/05/22 14:18:19;;;;;;;15.83;14.70;;;;;;;;;;6068286;23;20682;-65
2023/05/22 14:20:48;;;;;;;15.20;14.40;;;;;;;;;;6068399;23;20666;-66
2023/05/22 14:23:16;;;;;;;14.83;13.93;;;;;;;;;;6067657;23;20691;-65
2023/05/22 14:25:45;;;;;;;15.70;14.50;;;;;;;;;;6043449;23;20704;-63
2023/05/22 14:28:13;;;;;;;16.67;15.47;;;;;;;;;;6068446;23;20739;-65
2023/05/22 14:30:42;;;;;;;16.97;15.40;;;;;;;;;;6068892;23;20804;-64
2023/05/22 14:33:10;;;;;;;16.07;14.97;;;;;;;;;;6068177;23;20671;-64